Time;durP1;ratioP1;P1;durP2;ratioP2;P2;SDS_P1;SDS_P2;PMS_P1;PMS_P2;Temp;Humidity;BMP_temperature;BMP_pressure;BME280_temperature;BME280_humidity;BME280_pressure;Samples;Min_cycle;Max_cycle;Signal;HPM_P1;HPM_P2
2023/05/25 00:00:12;;;;;;;16.63;4.77;;;;;;;9.92;100.00;102508.25;5232843;28;20508;-72
2023/05/25 00:02:45;;;;;;;15.27;5.93;;;;;;;9.91;100.00;102509.22;5230149;28;20024;-73
2023/05/25 00:05:17;;;;;;;14.25;5.22;;;;;;;9.84;100.00;102498.16;5232326;28;20565;-72
2023/05/25 00:07:47;;;;;;;13.15;5.28;;;;;;;9.77;100.00;102503.13;5235961;28;20013;-72
2023/05/25 00:10:18;;;;;;;13.80;5.63;;;;;;;9.74;100.00;102498.03;5235174;28;20027;-72
2023/05/25 00:12:48;;;;;;;18.75;5.72;;;;;;;9.72;100.00;102496.41;5230617;28;20056;-72
2023/05/25 00:15:18;;;;;;;23.50;6.13;;;;;;;9.68;100.00;102495.78;5230402;28;20479;-72
2023/05/25 00:17:49;;;;;;;11.05;5.50;;;;;;;9.65;100.00;102495.19;5235194;28;20029;-72
2023/05/25 00:20:19;;;;;;;20.48;5.00;;;;;;;9.65;100.00;102505.91;5224015;28;20032;-72
2023/05/25 00:22:51;;;;;;;13.82;5.63;;;;;;;9.70;100.00;102501.06;5232032;28;20042;-72
2023/05/25 00:25:21;;;;;;;15.82;6.18;;;;;;;9.71;100.00;102497.41;5234938;28;20108;-72
2023/05/25 00:27:52;;;;;;;17.63;6.65;;;;;;;9.71;100.00;102511.66;5231938;28;20027;-72
2023/05/25 00:30:22;;;;;;;20.00;5.95;;;;;;;9.68;100.00;102509.19;5230510;28;20071;-73
2023/05/25 00:32:54;;;;;;;21.67;5.78;;;;;;;9.65;100.00;102508.59;5226580;28;20032;-73
2023/05/25 00:35:24;;;;;;;15.63;6.95;;;;;;;9.64;100.00;102507.75;5232147;28;20032;-73
2023/05/25 00:37:55;;;;;;;20.13;6.07;;;;;;;9.63;100.00;102500.66;5228877;28;20025;-73
2023/05/25 00:40:25;;;;;;;25.58;7.05;;;;;;;9.62;100.00;102503.47;5231550;28;20025;-73
2023/05/25 00:42:58;;;;;;;28.85;7.68;;;;;;;9.59;100.00;102508.09;5238378;28;20043;-72
2023/05/25 00:45:28;;;;;;;20.50;7.30;;;;;;;9.56;100.00;102505.66;5234833;28;20029;-73
2023/05/25 00:48:00;;;;;;;18.38;7.97;;;;;;;9.57;100.00;102510.03;5239264;28;20024;-72
2023/05/25 00:50:52;;;;;;;21.35;6.97;;;;;;;9.57;100.00;102512.72;5236304;28;20028;-72
2023/05/25 00:53:23;;;;;;;20.52;6.85;;;;;;;9.59;100.00;102513.47;5233456;28;20439;-72
2023/05/25 00:56:16;;;;;;;25.80;7.30;;;;;;;9.56;100.00;102516.38;5233392;28;20024;-72
2023/05/25 00:58:50;;;;;;;25.05;7.55;;;;;;;9.59;100.00;102516.16;5235209;28;20028;-73
2023/05/25 01:01:22;;;;;;;16.52;6.90;;;;;;;9.62;100.00;102516.88;5238130;28;20490;-72
2023/05/25 01:03:56;;;;;;;21.85;7.72;;;;;;;9.60;100.00;102519.69;5240088;28;20108;-72
2023/05/25 01:06:33;;;;;;;23.67;7.82;;;;;;;9.57;100.00;102518.06;5234189;28;20028;-72
2023/05/25 01:09:07;;;;;;;19.02;6.07;;;;;;;9.53;100.00;102519.28;5234021;28;20032;-72
2023/05/25 01:12:01;;;;;;;21.13;7.43;;;;;;;9.50;100.00;102516.84;5219108;28;20029;-72
2023/05/25 01:14:31;;;;;;;19.50;6.25;;;;;;;9.45;100.00;102521.72;5234105;28;20085;-72
2023/05/25 01:17:14;;;;;;;17.55;7.30;;;;;;;9.41;100.00;102527.41;5232747;28;20079;-72
2023/05/25 01:19:58;;;;;;;21.92;7.50;;;;;;;9.38;100.00;102528.50;5234405;28;20461;-72
2023/05/25 01:22:37;;;;;;;28.38;8.20;;;;;;;9.34;100.00;102522.53;5233384;28;20052;-72
2023/05/25 01:25:12;;;;;;;19.67;6.40;;;;;;;9.29;100.00;102526.53;5244889;28;20028;-72
2023/05/25 01:27:47;;;;;;;21.98;7.03;;;;;;;9.24;100.00;102526.03;5225578;28;20021;-72
2023/05/25 01:30:19;;;;;;;17.98;7.13;;;;;;;9.22;100.00;102534.16;5238569;28;20032;-72
2023/05/25 01:32:52;;;;;;;22.45;7.80;;;;;;;9.23;100.00;102535.88;5229985;28;20082;-72
2023/05/25 01:35:23;;;;;;;25.08;7.82;;;;;;;9.26;100.00;102537.47;5235082;28;20024;-72
2023/05/25 01:37:54;;;;;;;21.33;7.13;;;;;;;9.23;100.00;102527.84;5233344;28;20391;-72
2023/05/25 01:40:25;;;;;;;22.55;7.30;;;;;;;9.21;100.00;102534.31;5245383;28;20021;-72
2023/05/25 01:42:56;;;;;;;25.10;6.53;;;;;;;9.15;100.00;102532.94;5232638;28;20104;-72
2023/05/25 01:45:27;;;;;;;18.10;6.55;;;;;;;9.12;100.00;102538.53;5246370;28;20103;-72
2023/05/25 01:48:10;;;;;;;18.98;7.60;;;;;;;9.08;100.00;102543.25;5239307;28;20070;-72
2023/05/25 01:51:04;;;;;;;29.00;7.65;;;;;;;9.05;100.00;102538.13;5237105;28;20488;-72
2023/05/25 01:53:41;;;;;;;14.55;5.78;;;;;;;9.07;100.00;102543.38;5237915;28;20037;-72
2023/05/25 01:56:13;;;;;;;18.70;7.30;;;;;;;9.04;100.00;102541.78;5241248;28;20028;-72
2023/05/25 01:58:46;;;;;;;19.77;6.97;;;;;;;9.02;100.00;102542.84;5235664;28;20021;-72
2023/05/25 02:01:18;;;;;;;24.20;7.35;;;;;;;9.00;100.00;102540.31;5238565;28;20033;-72
2023/05/25 02:03:50;;;;;;;21.75;7.80;;;;;;;9.02;100.00;102527.66;5237576;28;20103;-72
2023/05/25 02:06:20;;;;;;;18.70;7.55;;;;;;;9.01;100.00;102535.81;5232023;28;20099;-72
2023/05/25 02:08:51;;;;;;;17.77;7.10;;;;;;;9.01;100.00;102541.16;5232508;28;20113;-73
2023/05/25 02:11:21;;;;;;;27.85;6.95;;;;;;;9.02;100.00;102537.50;5237936;28;20029;-72
2023/05/25 02:13:52;;;;;;;21.77;6.60;;;;;;;9.00;100.00;102542.97;5240718;28;20116;-72
2023/05/25 02:16:22;;;;;;;21.20;7.93;;;;;;;8.98;100.00;102544.06;5245013;28;20085;-72
2023/05/25 02:18:53;;;;;;;26.25;8.63;;;;;;;9.05;100.00;102550.66;5232321;28;20095;-72
2023/05/25 02:21:24;;;;;;;21.73;7.68;;;;;;;8.99;100.00;102553.81;5233257;28;20029;-72
2023/05/25 02:23:56;;;;;;;17.30;6.97;;;;;;;8.94;100.00;102551.47;5238720;28;20108;-72
2023/05/25 02:26:27;;;;;;;22.95;8.23;;;;;;;8.88;100.00;102546.56;5232550;28;20033;-73
2023/05/25 02:28:57;;;;;;;26.15;8.32;;;;;;;8.80;100.00;102546.28;5230673;28;20078;-72
2023/05/25 02:31:28;;;;;;;28.90;9.73;;;;;;;8.74;100.00;102550.28;5231887;28;20041;-72
2023/05/25 02:33:58;;;;;;;22.80;7.88;;;;;;;8.72;100.00;102551.34;5232319;28;20020;-72
2023/05/25 02:36:30;;;;;;;20.20;9.30;;;;;;;8.71;100.00;102542.47;5229993;28;20032;-72
2023/05/25 02:39:00;;;;;;;24.25;8.13;;;;;;;8.67;100.00;102540.97;5233507;28;20063;-72
2023/05/25 02:41:31;;;;;;;24.35;7.82;;;;;;;8.64;100.00;102546.56;5240612;28;20025;-72
2023/05/25 02:44:01;;;;;;;26.65;8.02;;;;;;;8.64;100.00;102537.69;5235046;28;20482;-72
2023/05/25 02:46:32;;;;;;;25.83;8.68;;;;;;;8.73;100.00;102551.22;5230883;28;20082;-72
2023/05/25 02:49:03;;;;;;;20.80;7.45;;;;;;;8.77;100.00;102549.19;5233207;28;20086;-72
2023/05/25 02:51:33;;;;;;;17.10;7.40;;;;;;;8.80;100.00;102548.97;5237670;28;20033;-72
2023/05/25 02:54:03;;;;;;;17.77;7.30;;;;;;;8.82;100.00;102550.53;5237645;28;20024;-72
2023/05/25 02:56:34;;;;;;;30.98;9.77;;;;;;;8.77;100.00;102550.03;5231079;28;20477;-73
2023/05/25 02:59:04;;;;;;;25.63;8.20;;;;;;;8.76;100.00;102542.97;5231585;28;20075;-72
2023/05/25 03:01:35;;;;;;;18.83;7.65;;;;;;;8.78;100.00;102546.38;5237259;28;20025;-72
2023/05/25 03:04:05;;;;;;;21.92;7.35;;;;;;;8.75;100.00;102551.97;5236977;28;20438;-72
2023/05/25 03:06:36;;;;;;;24.85;7.93;;;;;;;8.75;100.00;102562.69;5232607;28;20032;-72
2023/05/25 03:09:08;;;;;;;18.52;7.43;;;;;;;8.72;100.00;102554.88;5231236;28;20069;-72
2023/05/25 03:11:38;;;;;;;26.90;8.27;;;;;;;8.69;100.00;102559.59;5234205;28;20033;-72
2023/05/25 03:14:09;;;;;;;20.70;7.30;;;;;;;8.68;100.00;102553.38;5237881;28;20036;-72
2023/05/25 03:16:40;;;;;;;19.45;7.85;;;;;;;8.70;100.00;102564.00;5235512;28;20374;-72
2023/05/25 03:19:11;;;;;;;33.33;9.50;;;;;;;8.63;100.00;102560.03;5230956;28;20016;-72
2023/05/25 03:21:41;;;;;;;24.77;8.57;;;;;;;8.62;100.00;102566.34;5229797;28;20120;-72
2023/05/25 03:24:12;;;;;;;25.55;8.27;;;;;;;8.57;100.00;102562.19;5248217;28;20473;-72
2023/05/25 03:26:42;;;;;;;27.67;9.10;;;;;;;8.52;100.00;102564.34;5233869;28;20028;-72
2023/05/25 03:29:13;;;;;;;23.95;8.85;;;;;;;8.48;100.00;102573.56;5224076;28;20017;-72
2023/05/25 03:31:43;;;;;;;27.65;8.52;;;;;;;8.42;100.00;102576.66;5225790;28;20420;-72
2023/05/25 03:34:14;;;;;;;21.98;8.43;;;;;;;8.37;100.00;102578.81;5235290;28;20110;-72
2023/05/25 03:36:46;;;;;;;21.10;8.65;;;;;;;8.33;100.00;102579.97;5224335;28;20032;-72
2023/05/25 03:39:16;;;;;;;22.02;8.45;;;;;;;8.32;100.00;102583.59;5224436;28;20429;-72
2023/05/25 03:41:47;;;;;;;22.67;8.02;;;;;;;8.31;100.00;102587.25;5224264;28;20119;-72
2023/05/25 03:44:18;;;;;;;27.50;8.20;;;;;;;8.32;100.00;102589.81;5224339;28;20524;-72
2023/05/25 03:46:48;;;;;;;25.45;8.50;;;;;;;8.33;100.00;102585.31;5227994;28;20436;-72
2023/05/25 03:49:19;;;;;;;26.02;8.95;;;;;;;8.36;100.00;102582.47;5241671;28;20043;-72
2023/05/25 03:51:49;;;;;;;26.52;8.68;;;;;;;8.32;100.00;102583.59;5227954;28;20143;-72
2023/05/25 03:54:20;;;;;;;24.75;8.35;;;;;;;8.37;100.00;102584.16;5229955;28;20486;-72
2023/05/25 03:56:50;;;;;;;21.73;8.88;;;;;;;8.37;100.00;102584.16;5231658;28;20029;-72
2023/05/25 03:59:21;;;;;;;23.80;8.02;;;;;;;8.35;100.00;102588.75;5231766;28;20111;-72
2023/05/25 04:01:51;;;;;;;28.48;8.77;;;;;;;8.37;100.00;102592.19;5231147;28;20516;-72
2023/05/25 04:04:22;;;;;;;23.80;8.68;;;;;;;8.39;100.00;102592.97;5233429;28;20253;-72
2023/05/25 04:06:52;;;;;;;25.33;8.05;;;;;;;8.42;100.00;102599.88;5228973;28;20539;-72
2023/05/25 04:09:23;;;;;;;22.23;7.78;;;;;;;8.42;100.00;102606.09;5236722;28;20482;-72
2023/05/25 04:11:53;;;;;;;21.45;8.27;;;;;;;8.43;100.00;102601.59;5228576;28;20057;-72
2023/05/25 04:14:24;;;;;;;21.52;8.45;;;;;;;8.44;100.00;102608.69;5233834;28;20021;-72
2023/05/25 04:16:55;;;;;;;21.20;8.30;;;;;;;8.42;100.00;102608.75;5230992;28;20037;-72
2023/05/25 04:19:25;;;;;;;28.30;9.55;;;;;;;8.42;100.00;102614.13;5240256;28;20119;-73
2023/05/25 04:21:55;;;;;;;22.48;8.68;;;;;;;8.42;100.00;102613.25;5235057;28;20367;-72
2023/05/25 04:24:26;;;;;;;29.00;8.85;;;;;;;8.45;100.00;102613.06;5238638;28;20021;-72
2023/05/25 04:26:57;;;;;;;21.73;8.48;;;;;;;8.49;100.00;102617.22;5226698;28;20420;-72
2023/05/25 04:29:27;;;;;;;24.98;8.43;;;;;;;8.52;100.00;102607.13;5227248;28;20017;-73
2023/05/25 04:31:58;;;;;;;28.60;9.90;;;;;;;8.57;100.00;102623.72;5227274;28;20021;-73
2023/05/25 04:34:28;;;;;;;19.73;8.07;;;;;;;8.67;100.00;102617.72;5237710;28;20025;-73
2023/05/25 04:37:04;;;;;;;18.20;7.78;;;;;;;8.75;100.00;102615.34;5232287;28;20492;-73
2023/05/25 04:39:34;;;;;;;;;;;;;;;8.81;100.00;102621.09;5239994;28;20029;-72
2023/05/25 04:42:05;;;;;;;24.60;8.48;;;;;;;8.87;100.00;102622.47;5239034;28;19920;-73
2023/05/25 04:44:36;;;;;;;25.23;8.63;;;;;;;8.88;100.00;102623.31;5241682;28;20367;-72
2023/05/25 04:47:06;;;;;;;22.92;9.93;;;;;;;8.92;100.00;102624.81;5237043;28;20025;-72
2023/05/25 04:49:37;;;;;;;18.40;8.25;;;;;;;8.94;100.00;102623.75;5236480;28;20164;-73
2023/05/25 04:52:07;;;;;;;23.60;8.35;;;;;;;8.99;100.00;102620.75;5237137;28;20444;-72
2023/05/25 04:54:38;;;;;;;20.35;8.48;;;;;;;9.01;100.00;102616.97;5238767;28;20039;-73
2023/05/25 04:57:08;;;;;;;30.83;9.38;;;;;;;9.03;100.00;102620.38;5239727;28;20017;-73
2023/05/25 04:59:39;;;;;;;25.17;9.15;;;;;;;9.10;100.00;102630.66;5244379;28;20025;-73
2023/05/25 05:02:10;;;;;;;24.23;9.07;;;;;;;9.15;100.00;102634.69;5242873;28;20024;-73
2023/05/25 05:04:41;;;;;;;30.02;8.85;;;;;;;9.23;100.00;102642.16;5245882;28;20460;-73
2023/05/25 05:07:11;;;;;;;29.08;8.98;;;;;;;9.30;100.00;102644.25;5244438;28;20180;-73
2023/05/25 05:09:42;;;;;;;26.40;8.70;;;;;;;9.39;100.00;102642.72;5245862;28;20111;-73
2023/05/25 05:12:12;;;;;;;22.70;9.80;;;;;;;9.47;100.00;102644.81;5243299;28;20082;-73
2023/05/25 05:14:43;;;;;;;25.02;9.45;;;;;;;9.53;100.00;102649.72;5225588;28;20039;-73
2023/05/25 05:17:13;;;;;;;18.58;8.63;;;;;;;9.64;100.00;102646.22;5226258;28;20115;-73
2023/05/25 05:19:43;;;;;;;26.65;9.27;;;;;;;9.70;100.00;102652.00;5225859;28;20542;-73
2023/05/25 05:22:14;;;;;;;22.50;8.00;;;;;;;9.82;100.00;102655.53;5225547;28;20498;-73
2023/05/25 05:24:45;;;;;;;27.67;9.43;;;;;;;9.93;100.00;102655.56;5241210;28;20016;-73
2023/05/25 05:27:16;;;;;;;29.10;9.27;;;;;;;10.03;100.00;102658.41;5226679;28;20025;-73
2023/05/25 05:29:46;;;;;;;22.88;8.68;;;;;;;10.19;100.00;102663.41;5226495;28;20025;-73
2023/05/25 05:32:16;;;;;;;23.40;9.38;;;;;;;10.29;100.00;102657.28;5227548;28;20111;-73
2023/05/25 05:34:47;;;;;;;22.25;8.52;;;;;;;10.38;100.00;102658.38;5228190;28;20025;-73
2023/05/25 05:37:17;;;;;;;22.25;8.05;;;;;;;10.48;100.00;102656.66;5228225;28;20241;-73
2023/05/25 05:39:48;;;;;;;21.35;8.05;;;;;;;10.60;100.00;102668.28;5229905;28;20480;-73
2023/05/25 05:42:18;;;;;;;25.05;8.40;;;;;;;10.73;100.00;102662.75;5228951;28;20025;-73
2023/05/25 05:44:49;;;;;;;23.55;8.95;;;;;;;10.84;100.00;102662.75;5228823;28;20474;-73
2023/05/25 05:47:20;;;;;;;20.33;7.60;;;;;;;11.03;100.00;102667.47;5236872;28;20099;-73
2023/05/25 05:49:50;;;;;;;25.02;7.95;;;;;;;11.20;100.00;102664.28;5235726;28;20445;-73
2023/05/25 05:52:21;;;;;;;25.65;7.43;;;;;;;11.46;100.00;102666.66;5233468;28;20035;-73
2023/05/25 05:54:52;;;;;;;20.95;7.43;;;;;;;11.79;100.00;102663.78;5236837;28;20046;-73
2023/05/25 05:57:22;;;;;;;21.45;6.85;;;;;;;12.36;100.00;102670.56;5230838;28;20032;-73
2023/05/25 05:59:53;;;;;;;23.50;7.38;;;;;;;13.07;100.00;102672.41;5238757;28;20035;-73
2023/05/25 06:02:23;;;;;;;29.42;6.80;;;;;;;13.80;100.00;102673.75;5235245;28;20394;-73
2023/05/25 06:04:53;;;;;;;15.98;5.68;;;;;;;14.55;100.00;102672.06;5223441;28;20521;-73
2023/05/25 06:07:25;;;;;;;15.40;6.18;;;;;;;15.10;100.00;102665.81;5240722;28;20094;-73
2023/05/25 06:09:56;;;;;;;20.23;5.97;;;;;;;15.69;100.00;102676.09;5202546;28;1138478;-73
2023/05/25 06:12:26;;;;;;;13.90;5.25;;;;;;;16.07;100.00;102682.16;5242034;28;20032;-73
2023/05/25 06:14:57;;;;;;;18.48;5.60;;;;;;;16.41;100.00;102686.75;5244963;28;20024;-74
2023/05/25 06:17:28;;;;;;;14.88;5.28;;;;;;;16.75;100.00;102682.25;5231599;28;20111;-73
2023/05/25 06:19:59;;;;;;;15.10;5.97;;;;;;;17.06;100.00;102682.53;5233661;28;20493;-74
2023/05/25 06:22:29;;;;;;;18.45;5.95;;;;;;;17.47;100.00;102689.91;5232851;28;20028;-74
2023/05/25 06:25:00;;;;;;;13.15;6.30;;;;;;;17.80;100.00;102699.00;5240602;28;20464;-74
2023/05/25 06:27:30;;;;;;;19.13;5.15;;;;;;;18.07;100.00;102693.22;5224617;28;20031;-74
2023/05/25 06:30:01;;;;;;;15.23;5.15;;;;;;;18.11;100.00;102691.84;5225073;28;20020;-74
2023/05/25 06:32:32;;;;;;;15.23;5.78;;;;;;;18.25;100.00;102690.31;5224745;28;20107;-73
2023/05/25 06:35:03;;;;;;;15.98;5.60;;;;;;;18.61;100.00;102685.28;5224958;28;20025;-74
2023/05/25 06:37:36;;;;;;;18.63;5.40;;;;;;;18.88;100.00;102686.75;5233498;28;20478;-74
2023/05/25 06:40:09;;;;;;;16.23;5.65;;;;;;;18.98;100.00;102685.69;5239512;28;20033;-74
2023/05/25 06:42:40;;;;;;;15.65;5.57;;;;;;;18.85;100.00;102689.81;5235344;28;20060;-74
2023/05/25 06:45:11;;;;;;;17.15;5.20;;;;;;;19.41;100.00;102690.53;5232330;28;20028;-74
2023/05/25 06:47:41;;;;;;;18.50;5.50;;;;;;;19.25;100.00;102690.63;5236992;28;20066;-74
2023/05/25 06:50:12;;;;;;;15.30;5.20;;;;;;;19.27;100.00;102693.16;5235725;28;20089;-74
2023/05/25 06:52:42;;;;;;;16.48;5.85;;;;;;;19.40;100.00;102699.72;5238014;28;20379;-74
2023/05/25 06:55:13;;;;;;;16.67;5.55;;;;;;;19.42;100.00;102703.09;5234752;28;20119;-74
2023/05/25 06:57:43;;;;;;;17.48;5.30;;;;;;;19.54;100.00;102709.00;5234127;28;20050;-73
2023/05/25 07:00:15;;;;;;;15.10;5.45;;;;;;;19.82;100.00;102703.88;5234633;28;20028;-74
2023/05/25 07:02:45;;;;;;;11.93;4.82;;;;;;;20.32;100.00;102707.84;5236274;28;20028;-74
2023/05/25 07:05:16;;;;;;;20.33;6.18;;;;;;;20.23;100.00;102706.25;5233144;28;20029;-74
2023/05/25 07:07:46;;;;;;;9.25;4.70;;;;;;;20.00;100.00;102705.44;5237287;28;20324;-74
2023/05/25 07:10:17;;;;;;;12.98;5.35;;;;;;;19.85;100.00;102706.25;5233288;28;20735;-74
2023/05/25 07:12:47;;;;;;;16.17;5.60;;;;;;;20.00;100.00;102706.28;5239262;28;20423;-74
2023/05/25 07:15:20;;;;;;;18.52;5.07;;;;;;;20.15;100.00;102704.44;5234434;28;20029;-74
2023/05/25 07:17:50;;;;;;;12.88;4.82;;;;;;;20.42;100.00;102702.97;5239395;28;20032;-74
2023/05/25 07:20:21;;;;;;;15.50;5.80;;;;;;;20.59;100.00;102702.84;5232108;28;20466;-74
2023/05/25 07:22:52;;;;;;;12.85;5.50;;;;;;;20.87;100.00;102711.19;5228179;28;20029;-74
2023/05/25 07:25:22;;;;;;;17.77;5.43;;;;;;;21.08;100.00;102713.97;5223805;28;20021;-74
2023/05/25 07:27:54;;;;;;;17.23;6.07;;;;;;;21.31;100.00;102710.31;5224083;28;20032;-74
2023/05/25 07:30:24;;;;;;;17.08;5.43;;;;;;;21.43;100.00;102711.47;5223898;28;20060;-74
2023/05/25 07:32:56;;;;;;;16.60;5.85;;;;;;;21.54;100.00;102723.81;5235010;28;20048;-74
2023/05/25 07:35:27;;;;;;;16.88;6.53;;;;;;;21.71;100.00;102712.41;5225759;28;20026;-74
2023/05/25 07:38:00;;;;;;;14.88;4.68;;;;;;;21.53;100.00;102716.63;5224437;28;20497;-74
2023/05/25 07:40:31;;;;;;;13.70;5.32;;;;;;;21.59;100.00;102715.88;5224518;28;20029;-74
2023/05/25 07:43:01;;;;;;;18.73;5.65;;;;;;;21.50;100.00;102717.88;5224954;28;20255;-74
2023/05/25 07:45:32;;;;;;;12.93;4.88;;;;;;;21.87;100.00;102724.13;5224102;28;20029;-74
2023/05/25 07:48:05;;;;;;;14.25;5.30;;;;;;;21.52;100.00;102723.97;5234583;28;20028;-74
2023/05/25 07:50:36;;;;;;;14.45;4.95;;;;;;;21.57;100.00;102721.50;5234578;28;20035;-74
2023/05/25 07:53:06;;;;;;;15.45;5.40;;;;;;;21.73;100.00;102718.53;5225464;28;20458;-74
2023/05/25 07:55:37;;;;;;;11.40;4.93;;;;;;;21.97;100.00;102717.28;5224064;28;20024;-74
2023/05/25 07:58:07;;;;;;;16.15;4.63;;;;;;;21.94;100.00;102736.81;5224708;28;20031;-74
2023/05/25 08:00:38;;;;;;;17.13;4.95;;;;;;;21.88;100.00;102734.00;5224246;28;20470;-74
2023/05/25 08:03:09;;;;;;;14.43;5.53;;;;;;;22.15;100.00;102738.72;5236768;28;20033;-74
2023/05/25 08:05:39;;;;;;;19.38;4.80;;;;;;;22.28;100.00;102742.59;5225455;28;20049;-73
2023/05/25 08:08:10;;;;;;;10.68;4.60;;;;;;;21.93;100.00;102742.47;5226046;28;20033;-74
2023/05/25 08:10:40;;;;;;;15.43;5.25;;;;;;;21.78;100.00;102745.25;5226659;28;20025;-74
2023/05/25 08:13:11;;;;;;;17.58;5.35;;;;;;;21.62;100.00;102743.63;5232696;28;20037;-74
2023/05/25 08:15:41;;;;;;;14.40;4.80;;;;;;;21.76;100.00;102735.59;5230337;28;20043;-74
2023/05/25 08:18:12;;;;;;;10.77;4.53;;;;;;;22.12;100.00;102743.72;5224967;28;20218;-74
2023/05/25 08:20:42;;;;;;;13.70;4.55;;;;;;;22.43;100.00;102740.59;5226791;28;20047;-74
2023/05/25 08:23:13;;;;;;;10.15;4.32;;;;;;;22.50;100.00;102738.78;5232624;28;20036;-73
2023/05/25 08:25:43;;;;;;;12.73;4.22;;;;;;;22.58;100.00;102751.44;5223371;28;20029;-74
2023/05/25 08:28:14;;;;;;;11.95;3.88;;;;;;;22.45;100.00;102744.84;5223506;28;20025;-74
2023/05/25 08:30:45;;;;;;;14.68;3.60;;;;;;;22.50;100.00;102738.78;5223917;28;20362;-74
2023/05/25 08:33:15;;;;;;;15.40;4.07;;;;;;;22.55;100.00;102749.97;5223117;28;20050;-74
2023/05/25 08:35:48;;;;;;;15.10;4.90;;;;;;;22.75;100.00;102739.97;5205175;28;20064;-74
2023/05/25 08:38:23;;;;;;;13.18;4.63;;;;;;;22.82;100.00;102748.22;5223529;28;20099;-74
2023/05/25 08:41:03;;;;;;;10.77;4.43;;;;;;;22.97;100.00;102743.50;5224388;28;20107;-74
2023/05/25 08:43:33;;;;;;;8.10;3.95;;;;;;;23.13;100.00;102746.94;5223113;28;20055;-74
2023/05/25 08:46:05;;;;;;;12.88;3.70;;;;;;;23.18;98.08;102739.78;5234726;28;20024;-74
2023/05/25 08:48:37;;;;;;;8.52;3.90;;;;;;;23.14;92.78;102751.34;5236618;28;20478;-74
2023/05/25 08:51:09;;;;;;;13.65;4.28;;;;;;;23.10;96.63;102747.34;5233625;28;20021;-74
2023/05/25 08:53:42;;;;;;;14.18;4.65;;;;;;;23.31;98.51;102730.78;5227882;28;20033;-74
2023/05/25 08:56:18;;;;;;;9.65;3.92;;;;;;;23.83;100.00;102744.84;5228526;28;20070;-74
2023/05/25 08:59:14;;;;;;;10.23;4.00;;;;;;;23.96;91.72;102734.75;5226390;28;20078;-74
2023/05/25 09:01:48;;;;;;;11.30;4.85;;;;;;;23.73;100.00;102735.13;5236052;28;20016;-74
2023/05/25 09:04:19;;;;;;;12.30;4.55;;;;;;;24.16;88.77;102740.25;5233164;28;20032;-74
2023/05/25 09:06:50;;;;;;;13.85;4.47;;;;;;;23.03;94.00;102746.47;5230762;28;20494;-74
2023/05/25 09:09:21;;;;;;;9.38;4.50;;;;;;;22.12;100.00;102743.72;5225949;28;20025;-74
2023/05/25 09:11:52;;;;;;;10.77;4.18;;;;;;;22.28;100.00;102746.16;5230958;28;20059;-74
2023/05/25 09:14:23;;;;;;;9.05;4.35;;;;;;;23.07;100.00;102743.13;5235768;28;20024;-74
2023/05/25 09:16:53;;;;;;;9.50;3.75;;;;;;;23.51;98.51;102742.66;5230650;28;20021;-74
2023/05/25 09:19:24;;;;;;;11.50;4.30;;;;;;;24.22;96.75;102744.88;5234980;28;20170;-74
2023/05/25 09:21:54;;;;;;;11.52;3.70;;;;;;;24.54;81.62;102740.44;5237092;28;20554;-74
2023/05/25 09:24:25;;;;;;;10.63;4.00;;;;;;;23.78;97.95;102740.00;5238038;28;20134;-74
2023/05/25 09:26:55;;;;;;;7.65;3.53;;;;;;;23.46;100.00;102736.94;5228163;28;20108;-74
2023/05/25 09:29:26;;;;;;;9.38;3.65;;;;;;;23.35;88.37;102734.81;5237647;28;20044;-73
2023/05/25 09:31:56;;;;;;;12.45;3.85;;;;;;;22.74;99.81;102748.38;5228768;28;21607;-74
2023/05/25 09:34:32;;;;;;;17.00;3.60;;;;;;;22.29;98.44;102741.53;5227777;28;20386;-75
2023/05/25 09:37:10;;;;;;;9.43;3.95;;;;;;;21.82;99.58;102740.25;5228137;28;20024;-74
2023/05/25 09:39:42;;;;;;;13.77;4.55;;;;;;;21.18;100.00;102749.16;5229591;28;20025;-73
2023/05/25 09:42:12;;;;;;;12.65;3.88;;;;;;;20.96;100.00;102740.06;5227963;28;20675;-73
2023/05/25 09:44:43;;;;;;;7.90;3.67;;;;;;;20.61;100.00;102734.34;5228471;28;20059;-74
2023/05/25 09:47:16;;;;;;;9.48;4.03;;;;;;;20.55;100.00;102736.97;5231198;28;20048;-74
2023/05/25 09:49:49;;;;;;;11.50;4.43;;;;;;;20.68;100.00;102732.56;5242428;28;20033;-73
2023/05/25 09:52:19;;;;;;;8.80;4.15;;;;;;;20.65;100.00;102738.38;5226953;28;20497;-74
2023/05/25 09:54:51;;;;;;;10.27;3.78;;;;;;;20.98;100.00;102737.16;5227205;28;20028;-73
2023/05/25 09:57:21;;;;;;;8.73;3.55;;;;;;;20.64;100.00;102735.84;5225885;28;20024;-73
2023/05/25 09:59:52;;;;;;;13.20;3.50;;;;;;;20.83;100.00;102738.00;5226766;28;20023;-73
2023/05/25 10:02:22;;;;;;;9.30;3.40;;;;;;;21.34;100.00;102732.63;5233384;28;20082;-73
2023/05/25 10:04:52;;;;;;;8.32;3.28;;;;;;;21.97;100.00;102733.69;5227035;28;20060;-74
2023/05/25 10:07:24;;;;;;;9.70;3.30;;;;;;;22.62;100.00;102734.41;5225936;28;20025;-73
2023/05/25 10:09:58;;;;;;;11.48;3.25;;;;;;;22.79;100.00;102734.09;5237491;28;20032;-73
2023/05/25 10:12:29;;;;;;;9.10;3.83;;;;;;;22.82;98.34;102740.00;5227302;28;20382;-73
2023/05/25 10:15:02;;;;;;;13.20;3.85;;;;;;;22.77;98.94;102747.97;5224969;28;20035;-73
2023/05/25 10:17:35;;;;;;;9.85;3.60;;;;;;;22.52;98.06;102739.41;5238398;28;20021;-73
2023/05/25 10:20:07;;;;;;;7.95;3.40;;;;;;;22.51;100.00;102742.34;5226653;28;20033;-73
2023/05/25 10:22:50;;;;;;;7.22;3.10;;;;;;;21.56;99.24;102740.84;5244658;28;20028;-73
2023/05/25 10:25:38;;;;;;;12.75;3.60;;;;;;;20.82;100.00;102730.00;5228342;28;20079;-73
2023/05/25 10:28:30;;;;;;;5.72;3.60;;;;;;;21.19;100.00;102726.31;5224098;28;20039;-73
2023/05/25 10:31:02;;;;;;;10.43;3.60;;;;;;;21.41;100.00;102733.53;5224696;28;20434;-73
2023/05/25 10:33:33;;;;;;;9.82;4.05;;;;;;;21.57;100.00;102735.16;5224759;28;20032;-73
2023/05/25 10:36:05;;;;;;;8.93;3.35;;;;;;;21.31;100.00;102741.19;5206523;28;20021;-73
2023/05/25 10:38:38;;;;;;;10.13;4.03;;;;;;;21.72;100.00;102730.50;5224339;28;20025;-73
2023/05/25 10:41:10;;;;;;;12.48;4.68;;;;;;;21.87;100.00;102735.91;5224763;28;20090;-73
2023/05/25 10:43:41;;;;;;;10.63;3.53;;;;;;;21.61;100.00;102736.47;5224562;28;20020;-73
2023/05/25 10:46:14;;;;;;;9.70;4.30;;;;;;;21.30;100.00;102728.56;5225904;28;20025;-73
2023/05/25 10:48:47;;;;;;;11.43;4.35;;;;;;;21.25;100.00;102727.44;5235616;28;20116;-73
2023/05/25 10:51:19;;;;;;;9.63;4.32;;;;;;;21.11;100.00;102738.16;5224337;28;20025;-73
2023/05/25 10:54:12;;;;;;;11.73;4.80;;;;;;;21.09;100.00;102734.81;5224435;28;20024;-73
2023/05/25 10:57:19;;;;;;;11.98;5.10;;;;;;;21.41;100.00;102738.16;5223780;28;20029;-73
2023/05/25 10:59:51;;;;;;;11.15;4.70;;;;;;;21.53;100.00;102741.22;5224317;28;20036;-73
2023/05/25 11:02:22;;;;;;;12.25;4.32;;;;;;;21.31;100.00;102740.34;5206507;28;20079;-73
2023/05/25 11:05:30;;;;;;;13.90;4.45;;;;;;;21.16;100.00;102748.53;5224568;28;20021;-73
2023/05/25 11:08:03;;;;;;;6.97;4.05;;;;;;;21.18;100.00;102746.44;5223827;28;20037;-73
2023/05/25 11:10:51;;;;;;;12.23;4.75;;;;;;;21.59;100.00;102735.84;5224022;28;20028;-73
2023/05/25 11:13:52;;;;;;;13.75;4.90;;;;;;;21.81;100.00;102733.09;5224012;28;20071;-73
2023/05/25 11:16:38;;;;;;;13.25;4.90;;;;;;;22.03;100.00;102731.19;5223757;28;20490;-73
2023/05/25 11:19:14;;;;;;;10.70;4.25;;;;;;;21.95;100.00;102741.25;5224090;28;20024;-73
2023/05/25 11:21:44;;;;;;;10.60;4.60;;;;;;;22.09;100.00;102738.59;5238243;28;20469;-73
2023/05/25 11:24:16;;;;;;;11.18;4.47;;;;;;;21.97;100.00;102725.47;5236104;28;20032;-73
2023/05/25 11:27:07;;;;;;;9.63;4.15;;;;;;;21.61;100.00;102738.38;5222752;28;20105;-73
2023/05/25 11:29:39;;;;;;;8.05;3.90;;;;;;;21.67;100.00;102726.66;5223736;28;20386;-73
2023/05/25 11:34:58;;;;;;;11.32;4.28;;;;;;;21.66;100.00;102731.28;5223669;28;20043;-73
2023/05/25 11:37:30;;;;;;;8.90;3.90;;;;;;;21.38;100.00;102728.44;5223227;28;20088;-73
2023/05/25 11:40:05;;;;;;;8.05;4.03;;;;;;;21.17;100.00;102729.22;5224301;28;20029;-73